Granada, Spain
Current Conditions -  °F | °C
As of 6:30 PM on Saturday 25 Oct 2014 (Local Time) from LEGR Reporting Station
Clear Clear  
Wind Chill: 81°   Ceiling: Unl
Heat Index: 81°   Visibility: 6mi
Dew Point: 41°   Wind: 7mph
Humidity: 24%   Direction: 160°SSE
Pressure: 30.09"   Gusts: NA
Location:  37.18°N, 3.6°W
Report Text: LEGR 251630Z 16006KT 140V200 CAVOK 27/05 Q1019
Loading
Personal Weather Stations






























Interactive Weather Map
Tropical Storm Tracking
New forecast layout! Learn more

10-Day Weather Forecast

Advertisements
Track Severe Weather on mobile